Terminal Aerodrome Forecast
Issued by NWS

Home | Current Version | Previous Version | Text Only | Print | Product List | Glossary Off
Versions: 1 2 3 4 5 6 7 8 9 10 11 12 13 14 15 16 17

712
FTUS43 KICT 292328
TAFHUT
TAF
KHUT 292328Z 3000/3024 36015G24KT 5SM -RA SCT008 OVC015
      TEMPO 3000/3002 2SM -RA BR BKN008
     FM300300 36015G25KT 5SM BR VCSH OVC006
     FM300800 34018KT 5SM -SHRA OVC008
     FM301100 34018G26KT P6SM VCSH OVC008
     FM301500 34017KT P6SM OVC010=

USA.gov is the U.S. government's official web portal to all federal, state and local government web resources and services.